Council Grove, Kansas
Current Conditions -  °F | °C
As of 3:53 AM on Tuesday 27 Jan 2015 (Local Time) from KEMP Reporting Station
Clear Clear  
Wind Chill: 33°   Ceiling: Unl
Heat Index: 38°   Visibility: 10mi
Dew Point: 29°   Wind: 7mph
Humidity: 70%   Direction: 280°W
Pressure: 30.09"   Gusts: NA
Location:  38.66°N, 96.49°W
Report Text: KEMP 270953Z AUTO 28006KT 10SM CLR 03/M02 A3009 RMK AO2 SLP192 T00331017
Loading
Personal Weather Stations






























Interactive Weather Map New forecast layout! Learn more

10-Day Weather Forecast

Advertisements
Track Severe Weather on mobile